Bridgeton, North Carolina
Current Conditions -  °F | °C
As of 1:54 PM on Tuesday 21 Oct 2014 (Local Time) from KEWN Reporting Station
Clear Clear  
Wind Chill: 78°   Ceiling: Unl
Heat Index: 79°   Visibility: 10mi
Dew Point: 52°   Wind: 7mph
Humidity: 40%   Direction: 260°W
Pressure: 29.86"   Gusts: NA
Location:  35.12°N, 77.02°W
Report Text: KEWN 211754Z 26006KT 10SM CLR 26/11 A2986 RMK AO2 SLP111 T02560111 10256 20128 58023
Loading
Personal Weather Stations






























Interactive Weather Map
Tropical Storm Tracking
New forecast layout! Learn more

10-Day Weather Forecast

Advertisements
Track Severe Weather on mobile